Terminal Aerodrome Forecast
Issued by NWS Bismarck, ND

Home | Current Version | Previous Version | Graphics & Text | Print | Product List | Glossary On
Versions: 1 2 3 4 5 6 7 8 9 10 11 12 13 14 15 16 17 18 19
931
FTUS43 KBIS 251730
TAFBIS
TAF
KBIS 251730Z 2518/2618 17012G20KT P6SM OVC007
      TEMPO 2518/2520 BKN015 OVC100
     FM252000 16008KT P6SM BKN150 OVC250
     FM260200 12004KT P6SM BKN120
     FM260700 VRB03KT P6SM VCSH OVC060
     FM261300 00000KT P6SM OVC035=

USA.gov is the U.S. government's official web portal to all federal, state and local government web resources and services.